Temp: 12.8°C   Baro: 995.2mb
  Wind: 6.9mph   Dir: SW (224°)
  Rain: 1.8mm (0.0mm/hr)
  Solar: 97W/m2  Hum: 84%
 
Bath Spa Weather Station Historical Data
Daily Summary for April 10, 2021 Units:  Metric    English   Both
Daily Weekly Monthly Yearly Custom
  High: Low: Average:
Temperature: 9.7 °C 2.5 °C 5.2 °C
Dew Point: 5.6 °C 0.4 °C 2.6 °C
Humidity: 86% 68.4% 81%
Wind Speed: 14.5km/h 0km/h 5.8km/h
Wind Gust: 29km/h - -
Wind- - ENE
Pressure: 1015.1 hPa 1012.1 hPa -
Precipitation: 1.02 mm    
Historical Graphs
 
 
Tabular Data for April 10, 2021
Time Temperature Dew Point Pressure Wind Wind Speed Wind Gust Humidity Rainfall Rate (Hourly) solar
00:09 6.4 °C 4.3 °C 1013.8 hPa NE 5 km/h 11.3 km/h 83.8% 0 mm 0 W/m2
00:14 6.3 °C 4.1 °C 1013.8 hPa NE 2.1 km/h 9.7 km/h 83% 0 mm 0 W/m2
00:24 6.1 °C 3.9 °C 1013.8 hPa NE 3.2 km/h 8 km/h 82.8% 0 mm 0 W/m2
00:29 6.1 °C 3.8 °C 1013.8 hPa NE 2.1 km/h 6.4 km/h 82.4% 0 mm 0 W/m2
00:34 6.1 °C 3.7 °C 1013.8 hPa NE 1.4 km/h 4.8 km/h 82% 0 mm 0 W/m2
00:39 6.1 °C 3.8 °C 1013.8 hPa NNE 4 km/h 9.7 km/h 82.2% 0 mm 0 W/m2
00:49 5.9 °C 3.7 °C 1013.8 hPa North 5.1 km/h 8 km/h 83% 0 mm 0 W/m2
00:54 5.8 °C 3.6 °C 1013.8 hPa North 3.9 km/h 8 km/h 83% 0 mm 0 W/m2
00:59 5.6 °C 3.4 °C 1013.8 hPa North 4.7 km/h 9.7 km/h 83% 0 mm 0 W/m2
01:04 5.4 °C 3.2 °C 1014.1 hPa North 4.3 km/h 6.4 km/h 83% 0 mm 0 W/m2
01:09 5.3 °C 3.2 °C 1013.8 hPa North 2.9 km/h 6.4 km/h 83% 0 mm 0 W/m2
01:14 5.3 °C 3.1 °C 1013.8 hPa North 2.7 km/h 6.4 km/h 83% 0 mm 0 W/m2
01:19 5.3 °C 3.1 °C 1013.8 hPa North 5.5 km/h 11.3 km/h 83% 0 mm 0 W/m2
01:24 5.2 °C 3 °C 1013.8 hPa North 2.4 km/h 9.7 km/h 83% 0 mm 0 W/m2
01:29 5.2 °C 2.9 °C 1013.8 hPa North 3.4 km/h 12.9 km/h 82.6% 0 mm 0 W/m2
01:34 5.1 °C 2.8 °C 1013.8 hPa NNE 8 km/h 12.9 km/h 82% 0 mm 0 W/m2
01:39 5 °C 2.5 °C 1013.8 hPa NNE 7.1 km/h 16.1 km/h 81% 0 mm 0 W/m2
01:44 4.9 °C 2.2 °C 1013.8 hPa NNE 10 km/h 19.3 km/h 79.8% 0 mm 0 W/m2
01:49 4.9 °C 2.1 °C 1013.8 hPa NNE 6.6 km/h 12.9 km/h 79% 0 mm 0 W/m2
01:54 4.9 °C 1.9 °C 1013.8 hPa NNE 11.9 km/h 14.5 km/h 78% 0 mm 0 W/m2
01:59 4.9 °C 1.9 °C 1013.8 hPa NNE 9.5 km/h 19.3 km/h 78% 0 mm 0 W/m2
02:09 4.8 °C 1.6 °C 1013.8 hPa NNE 7.9 km/h 16.1 km/h 77% 0 mm 0 W/m2
02:14 4.8 °C 1.6 °C 1013.8 hPa North 9.5 km/h 14.5 km/h 77% 0 mm 0 W/m2
02:19 4.8 °C 1.6 °C 1013.8 hPa NNE 8.2 km/h 14.5 km/h 77% 0 mm 0 W/m2
02:24 4.8 °C 1.6 °C 1013.4 hPa NNE 5.1 km/h 16.1 km/h 77% 0 mm 0 W/m2
02:29 4.8 °C 1.6 °C 1013.8 hPa NNE 5.5 km/h 12.9 km/h 77% 0 mm 0 W/m2
02:34 4.7 °C 1.6 °C 1013.8 hPa North 6.8 km/h 9.7 km/h 77% 0 mm 0 W/m2
02:39 4.8 °C 1.6 °C 1013.4 hPa NNE 5.8 km/h 12.9 km/h 77% 0 mm 0 W/m2
02:44 4.8 °C 1.6 °C 1013.4 hPa NNE 7.1 km/h 16.1 km/h 77% 0 mm 0 W/m2
02:49 4.7 °C 1.5 °C 1013.4 hPa North 5.8 km/h 16.1 km/h 77% 0 mm 0 W/m2
02:54 4.6 °C 1.4 °C 1013.4 hPa North 5.5 km/h 9.7 km/h 77.2% 0.25 mm 0 W/m2
02:59 4.5 °C 1.5 °C 1013.4 hPa NNE 5.3 km/h 14.5 km/h 78% 0.25 mm 0 W/m2
03:04 4.4 °C 1.4 °C 1013.4 hPa NNE 2.1 km/h 14.5 km/h 78% 0.25 mm 0 W/m2
03:09 4.4 °C 1.6 °C 1013.4 hPa NNE 4.5 km/h 9.7 km/h 78.8% 0.25 mm 0 W/m2
03:14 4.4 °C 1.4 °C 1013.4 hPa NNE 4.5 km/h 12.9 km/h 78.2% 0.25 mm 0 W/m2
03:19 4.4 °C 1.4 °C 1013.4 hPa North 3.5 km/h 11.3 km/h 78% 0.25 mm 0 W/m2
03:24 4.4 °C 1.4 °C 1013.4 hPa NNE 4.2 km/h 11.3 km/h 78% 0.25 mm 0 W/m2
03:29 4.4 °C 1.4 °C 1013.4 hPa North 3.1 km/h 11.3 km/h 78% 0.25 mm 0 W/m2
03:34 4.4 °C 1.4 °C 1013.4 hPa NNE 5.1 km/h 11.3 km/h 78% 0.25 mm 0 W/m2
03:39 4.4 °C 1.4 °C 1013.4 hPa NE 5.3 km/h 9.7 km/h 78% 0.25 mm 0 W/m2
03:44 4.4 °C 1.4 °C 1013.4 hPa ENE 1 km/h 9.7 km/h 78% 0.25 mm 0 W/m2
03:49 4.4 °C 1.4 °C 1013.4 hPa ENE 2.1 km/h 8 km/h 78% 0.25 mm 0 W/m2
03:54 4.4 °C 1.4 °C 1013.4 hPa ENE 0.3 km/h 1.6 km/h 78% 0.25 mm 0 W/m2
03:59 4.4 °C 1.4 °C 1013.4 hPa ENE 3.4 km/h 9.7 km/h 78% 0 mm 0 W/m2
04:04 4.3 °C 1.3 °C 1013.4 hPa ENE 3.1 km/h 9.7 km/h 78% 0 mm 0 W/m2
04:09 4.3 °C 1.3 °C 1013.1 hPa NE 5.1 km/h 12.9 km/h 78% 0 mm 0 W/m2
04:14 4.3 °C 1.3 °C 1013.1 hPa NE 0.8 km/h 4.8 km/h 78% 0 mm 0 W/m2
04:19 4.3 °C 1.3 °C 1013.1 hPa NE 3.4 km/h 6.4 km/h 78% 0 mm 0 W/m2
04:24 4.2 °C 1.2 °C 1013.1 hPa NE 0.6 km/h 8 km/h 78% 0 mm 0 W/m2
04:29 4.2 °C 1.2 °C 1013.1 hPa NE 1 km/h 3.2 km/h 78% 0 mm 0 W/m2
04:34 4.2 °C 1.2 °C 1013.1 hPa NE 2.3 km/h 6.4 km/h 78% 0 mm 0 W/m2
04:44 4 °C 1 °C 1013.1 hPa NE 1.8 km/h 4.8 km/h 78% 0 mm 0 W/m2
04:49 3.9 °C 0.9 °C 1013.1 hPa NE 3.4 km/h 6.4 km/h 78% 0 mm 0 W/m2
04:54 3.8 °C 0.8 °C 1013.1 hPa NE 2.7 km/h 6.4 km/h 78% 0 mm 0 W/m2
04:59 3.8 °C 1 °C 1013.1 hPa NE 1.3 km/h 6.4 km/h 79% 0 mm 0 W/m2
05:04 3.8 °C 1 °C 1013.1 hPa NE 1.9 km/h 4.8 km/h 79% 0 mm 0 W/m2
05:09 3.7 °C 0.9 °C 1013.4 hPa NE 0.6 km/h 4.8 km/h 79% 0 mm 0 W/m2
05:14 3.7 °C 0.8 °C 1013.1 hPa Calm     79% 0 mm 0 W/m2
05:18 3.6 °C 0.8 °C 1013.1 hPa NE 1.1 km/h 4.8 km/h 79% 0 mm 0 W/m2
05:24 3.5 °C 0.8 °C 1013.4 hPa NE 0.3 km/h 1.6 km/h 79.4% 0 mm 0 W/m2
05:29 3.5 °C 0.9 °C 1013.4 hPa NE 1 km/h 6.4 km/h 80% 0 mm 0 W/m2
05:34 3.4 °C 0.8 °C 1013.4 hPa NE 1.9 km/h 4.8 km/h 80% 0 mm 0 W/m2
05:39 3.3 °C 0.7 °C 1013.4 hPa Calm   4.8 km/h 80% 0 mm 0 W/m2
05:44 3.3 °C 0.7 °C 1013.4 hPa NE 2.4 km/h 4.8 km/h 80% 0 mm 0 W/m2
05:49 3.2 °C 0.6 °C 1013.4 hPa NE 3.7 km/h 6.4 km/h 80% 0 mm 0 W/m2
05:54 3.1 °C 0.5 °C 1013.4 hPa NE 1 km/h 4.8 km/h 80% 0 mm 0 W/m2
05:59 3.1 °C 0.5 °C 1013.4 hPa NE 3.4 km/h 6.4 km/h 80% 0 mm 0 W/m2
06:03 3.1 °C 0.5 °C 1013.4 hPa Calm   6.4 km/h 80% 0 mm 0 W/m2
06:09 3.2 °C 0.6 °C 1013.4 hPa Calm     80% 0 mm 0 W/m2
06:14 3.2 °C 0.6 °C 1013.4 hPa NE 1 km/h 4.8 km/h 80% 0 mm 0 W/m2
06:19 3.1 °C 0.5 °C 1013.4 hPa NE 2.7 km/h 4.8 km/h 80% 0 mm 0 W/m2
06:24 3.1 °C 0.5 °C 1013.4 hPa NE 1.6 km/h 4.8 km/h 80% 0 mm 0 W/m2
06:29 3.1 °C 0.5 °C 1013.4 hPa NE 1.9 km/h 6.4 km/h 80.2% 0 mm 0 W/m2
06:34 3.1 °C 0.6 °C 1013.4 hPa NE 1.9 km/h 4.8 km/h 81% 0 mm 0 W/m2
06:39 3.1 °C 0.6 °C 1013.4 hPa NE 1 km/h 4.8 km/h 81% 0 mm 7 W/m2
06:44 3.1 °C 0.6 °C 1013.4 hPa NE 0.6 km/h 3.2 km/h 81% 0 mm 9 W/m2
06:49 3 °C 0.5 °C 1013.4 hPa NE 0.6 km/h 3.2 km/h 81% 0 mm 11 W/m2
06:54 2.9 °C 0.4 °C 1013.4 hPa NE 1.6 km/h 4.8 km/h 81% 0 mm 12 W/m2
06:59 2.9 °C 0.6 °C 1013.4 hPa NE 0.6 km/h 4.8 km/h 82% 0 mm 14 W/m2
07:04 2.9 °C 0.6 °C 1013.4 hPa NE 1.1 km/h 4.8 km/h 82% 0 mm 16 W/m2
07:09 2.9 °C 0.6 °C 1013.4 hPa NE 1.9 km/h 4.8 km/h 82% 0 mm 18 W/m2
07:14 2.8 °C 0.5 °C 1013.4 hPa NE 0.8 km/h 4.8 km/h 82% 0 mm 19 W/m2
07:19 2.8 °C 0.5 °C 1013.4 hPa NE 1.9 km/h 4.8 km/h 82% 0 mm 23 W/m2
07:24 2.8 °C 0.6 °C 1013.4 hPa NE 2.3 km/h 6.4 km/h 82.4% 0 mm 23 W/m2
07:29 2.7 °C 0.6 °C 1013.4 hPa NE 3.2 km/h 6.4 km/h 83% 0 mm 19 W/m2
07:34 2.7 °C 0.6 °C 1013.4 hPa NE 2.7 km/h 6.4 km/h 83% 0 mm 18 W/m2
07:39 2.6 °C 0.5 °C 1013.4 hPa NE 3.2 km/h 6.4 km/h 83% 0 mm 21 W/m2
07:44 2.6 °C 0.6 °C 1013.4 hPa NE 4 km/h 6.4 km/h 83.6% 0 mm 30 W/m2
07:49 2.5 °C 0.6 °C 1013.4 hPa NE 2.9 km/h 6.4 km/h 84% 0 mm 35 W/m2
07:54 2.5 °C 0.6 °C 1013.4 hPa NE 1.9 km/h 4.8 km/h 84% 0 mm 39 W/m2
07:59 2.6 °C 0.7 °C 1013.8 hPa NE 2.7 km/h 4.8 km/h 84% 0 mm 44 W/m2
08:04 2.7 °C 0.8 °C 1013.8 hPa Calm   3.2 km/h 84% 0 mm 42 W/m2
08:09 2.8 °C 1.1 °C 1013.8 hPa Calm     85% 0 mm 56 W/m2
08:14 3.1 °C 1.3 °C 1013.8 hPa NE 2.6 km/h 11.3 km/h 85% 0 mm 63 W/m2
08:19 3.4 °C 1.6 °C 1013.8 hPa NNE 8.4 km/h 14.5 km/h 85% 0 mm 67 W/m2
08:24 3.6 °C 1.8 °C 1013.8 hPa NNE 8 km/h 16.1 km/h 85.4% 0 mm 77 W/m2
08:29 3.6 °C 2 °C 1013.8 hPa NNE 7.2 km/h 14.5 km/h 86% 0 mm 76 W/m2
08:34 3.6 °C 2 °C 1013.8 hPa NNE 8.9 km/h 17.7 km/h 86% 0 mm 116 W/m2
08:39 3.7 °C 2.1 °C 1013.8 hPa NE 5.6 km/h 14.5 km/h 86% 0 mm 139 W/m2
08:44 3.7 °C 2.1 °C 1013.4 hPa North 8.5 km/h 16.1 km/h 86% 0 mm 158 W/m2
08:49 3.8 °C 2.2 °C 1013.4 hPa NNE 5 km/h 14.5 km/h 86% 0 mm 162 W/m2
08:54 3.8 °C 2.2 °C 1013.4 hPa NNE 9.7 km/h 16.1 km/h 86% 0 mm 141 W/m2
08:59 3.8 °C 2.2 °C 1013.4 hPa NE 6 km/h 16.1 km/h 86% 0 mm 132 W/m2
09:04 3.8 °C 2.2 °C 1013.4 hPa NE 3.9 km/h 14.5 km/h 86% 0 mm 113 W/m2
09:09 3.9 °C 2.3 °C 1013.8 hPa NE 4.8 km/h 14.5 km/h 86% 0 mm 90 W/m2
09:14 3.9 °C 2.3 °C 1013.8 hPa NNE 3.5 km/h 9.7 km/h 86% 0 mm 93 W/m2
09:19 3.9 °C 2.3 °C 1013.8 hPa North 1.6 km/h 11.3 km/h 86% 0 mm 114 W/m2
09:24 3.9 °C 2.3 °C 1013.8 hPa North 2.4 km/h 6.4 km/h 86% 0 mm 109 W/m2
09:28 4.1 °C 2.4 °C 1013.8 hPa North 3.1 km/h 9.7 km/h 86% 0 mm 104 W/m2
09:34 4.1 °C 2.5 °C 1013.8 hPa North 2.7 km/h 9.7 km/h 86% 0 mm 100 W/m2
09:39 4.1 °C 2.5 °C 1013.8 hPa NNE 4 km/h 11.3 km/h 86% 0 mm 127 W/m2
09:44 4.2 °C 2.6 °C 1013.8 hPa NNE 4.2 km/h 8 km/h 86% 0 mm 125 W/m2
09:49 4.2 °C 2.6 °C 1013.8 hPa NE 6.1 km/h 14.5 km/h 86% 0 mm 127 W/m2
09:54 4.3 °C 2.7 °C 1013.8 hPa NE 4.5 km/h 9.7 km/h 86% 0 mm 179 W/m2
09:59 4.4 °C 2.8 °C 1013.8 hPa North 5.5 km/h 14.5 km/h 86% 0 mm 207 W/m2
10:04 4.4 °C 2.8 °C 1013.8 hPa North 5.6 km/h 11.3 km/h 86% 0 mm 169 W/m2
10:09 4.6 °C 2.9 °C 1013.8 hPa NE 4.3 km/h 14.5 km/h 86% 0 mm 114 W/m2
10:14 4.6 °C 3 °C 1013.4 hPa ENE 2.3 km/h 12.9 km/h 86% 0 mm 111 W/m2
10:18 4.7 °C 3.1 °C 1013.4 hPa ENE 4.3 km/h 8 km/h 86% 0 mm 123 W/m2
10:24 4.8 °C 3.1 °C 1013.8 hPa ENE 3.4 km/h 8 km/h 86% 0 mm 121 W/m2
10:29 4.8 °C 3.2 °C 1013.8 hPa NE 5 km/h 12.9 km/h 86% 0 mm 116 W/m2
10:34 5 °C 3.3 °C 1013.8 hPa NE 5.3 km/h 12.9 km/h 86% 0 mm 146 W/m2
10:39 5.1 °C 3.3 °C 1013.4 hPa NE 2.1 km/h 11.3 km/h 86% 0 mm 171 W/m2
10:44 5.3 °C 3.6 °C 1013.4 hPa NE 2.3 km/h 6.4 km/h 86% 0 mm 169 W/m2
10:49 5.4 °C 3.7 °C 1013.4 hPa NE 4 km/h 9.7 km/h 85.6% 0 mm 179 W/m2
10:54 5.4 °C 3.6 °C 1013.4 hPa NE 5.8 km/h 9.7 km/h 85% 0 mm 171 W/m2
10:59 5.6 °C 3.8 °C 1013.4 hPa NE 2.9 km/h 9.7 km/h 85% 0 mm 204 W/m2
11:04 5.8 °C 4 °C 1013.4 hPa NNE 4.2 km/h 11.3 km/h 85% 0 mm 230 W/m2
11:09 6 °C 4.2 °C 1013.4 hPa NNE 2.3 km/h 8 km/h 85% 0 mm 302 W/m2
11:14 6.3 °C 4.3 °C 1013.4 hPa NNE 8.4 km/h 17.7 km/h 84.4% 0 mm 290 W/m2
11:19 6.3 °C 4.2 °C 1013.4 hPa NNE 6.4 km/h 17.7 km/h 83.2% 0 mm 350 W/m2
11:24 6.6 °C 4.3 °C 1013.4 hPa NNE 5.8 km/h 14.5 km/h 83% 0 mm 434 W/m2
11:29 6.8 °C 4.5 °C 1013.4 hPa North 10 km/h 16.1 km/h 82.3% 0 mm 327 W/m2
11:34 7.1 °C 4.5 °C 1013.4 hPa ENE 10 km/h 14.5 km/h 80.8% 0 mm 522 W/m2
11:39 7.5 °C 4.7 °C 1013.4 hPa ESE 5.1 km/h 12.9 km/h 79.2% 0 mm 821 W/m2
11:44 7.9 °C 4.9 °C 1013.4 hPa SE 6.1 km/h 16.1 km/h 78.8% 0 mm 517 W/m2
11:49 8.2 °C 5.1 °C 1013.4 hPa ESE 8 km/h 16.1 km/h 77.8% 0 mm 675 W/m2
11:54 8.5 °C 5 °C 1013.1 hPa ESE 7.4 km/h 14.5 km/h 76.2% 0 mm 905 W/m2
11:59 8.2 °C 4.8 °C 1013.1 hPa SE 6 km/h 16.1 km/h 76.5% 0 mm 867 W/m2
12:04 8.4 °C 4.9 °C 1013.1 hPa East 10.9 km/h 19.3 km/h 76% 0 mm 214 W/m2
12:09 8.6 °C 4.9 °C 1013.1 hPa East 5.1 km/h 14.5 km/h 75.4% 0 mm 283 W/m2
12:14 8.5 °C 4.8 °C 1013.1 hPa NE 9.3 km/h 22.5 km/h 75.2% 0 mm 264 W/m2
12:19 8.2 °C 4.6 °C 1013.1 hPa NE 5.6 km/h 22.5 km/h 75.4% 0 mm 264 W/m2
12:24 8.2 °C 4.7 °C 1013.1 hPa NE 9.7 km/h 16.1 km/h 75.6% 0 mm 244 W/m2
12:34 8 °C 4.3 °C 1013.1 hPa NE 7.2 km/h 16.1 km/h 75% 0 mm 279 W/m2
12:39 7.9 °C 4.3 °C 1013.1 hPa NE 8 km/h 16.1 km/h 75% 0 mm 288 W/m2
12:49 7.9 °C 4.3 °C 1013.1 hPa ENE 8.7 km/h 24.1 km/h 75.8% 0 mm 276 W/m2
12:54 7.9 °C 4.3 °C 1013.1 hPa NE 7.7 km/h 24.1 km/h 75.4% 0 mm 274 W/m2
12:59 7.9 °C 4.2 °C 1013.1 hPa NE 8.5 km/h 19.3 km/h 75.2% 0 mm 265 W/m2
13:04 7.9 °C 4.2 °C 1013.1 hPa ENE 10.6 km/h 22.5 km/h 75% 0 mm 255 W/m2
13:14 7.9 °C 4.2 °C 1012.8 hPa NE 11.6 km/h 19.3 km/h 74.8% 0 mm 248 W/m2
13:19 7.7 °C 3.9 °C 1012.8 hPa NE 11.6 km/h 20.9 km/h 74.4% 0 mm 199 W/m2
13:24 7.7 °C 4 °C 1012.8 hPa NE 6.9 km/h 17.7 km/h 75% 0 mm 234 W/m2
13:29 7.8 °C 4.2 °C 1012.8 hPa NE 6.4 km/h 14.5 km/h 75.5% 0 mm 257 W/m2
13:34 7.9 °C 4.3 °C 1012.8 hPa ENE 6.9 km/h 17.7 km/h 75.4% 0 mm 390 W/m2
13:39 8.6 °C 4.9 °C 1012.8 hPa East 6.9 km/h 12.9 km/h 75.2% 0 mm 814 W/m2
13:43 9.3 °C 5.6 °C 1012.8 hPa East 6.8 km/h 14.5 km/h 74.5% 0 mm 807 W/m2
13:49 9.4 °C 5.3 °C 1012.8 hPa ESE 9.3 km/h 16.1 km/h 73% 0 mm 865 W/m2
13:54 9.6 °C 5.4 °C 1012.8 hPa ESE 8.7 km/h 17.7 km/h 72.6% 0 mm 969 W/m2
13:59 9.7 °C 5.4 °C 1012.8 hPa SE 5.6 km/h 16.1 km/h 72.4% 0 mm 958 W/m2
14:04 9.4 °C 4.9 °C 1012.8 hPa ESE 8.2 km/h 20.9 km/h 71% 0 mm 274 W/m2
14:09 9.5 °C 4.8 °C 1012.8 hPa ESE 8.9 km/h 16.1 km/h 70% 0 mm 932 W/m2
14:14 9.6 °C 4.7 °C 1012.8 hPa SE 8.9 km/h 16.1 km/h 69% 0 mm 942 W/m2
14:24 9.7 °C 4.7 °C 1012.8 hPa East 7.6 km/h 22.5 km/h 68.4% 0 mm 812 W/m2
14:34 9.1 °C 4.2 °C 1012.4 hPa East 6.4 km/h 16.1 km/h 68.8% 0 mm 199 W/m2
14:39 9.1 °C 4.3 °C 1012.8 hPa ESE 9 km/h 20.9 km/h 69.6% 0 mm 169 W/m2
14:44 8.8 °C 4.1 °C 1012.8 hPa ENE 8.9 km/h 20.9 km/h 70% 0 mm 104 W/m2
14:49 8.6 °C 4.1 °C 1012.8 hPa ENE 2.7 km/h 9.7 km/h 71% 0 mm 111 W/m2
14:54 8.6 °C 3.9 °C 1012.8 hPa ENE 5.5 km/h 12.9 km/h 70% 0 mm 114 W/m2
14:59 8.6 °C 3.9 °C 1012.8 hPa East 4.5 km/h 16.1 km/h 70% 0 mm 107 W/m2
15:04 8.4 °C 3.8 °C 1012.4 hPa East 2.1 km/h 11.3 km/h 70% 0 mm 102 W/m2
15:08 8.4 °C 3.6 °C 1012.8 hPa East 5.1 km/h 11.3 km/h 69.3% 0 mm 90 W/m2
15:14 8.4 °C 3.6 °C 1012.8 hPa East 4 km/h 11.3 km/h 69.6% 0 mm 70 W/m2
15:24 7.7 °C 4.2 °C 1012.8 hPa NNW 8.7 km/h 14.5 km/h 75.6% 0 mm 76 W/m2
15:29 7.4 °C 4 °C 1012.8 hPa NNW 3.9 km/h 11.3 km/h 76.6% 0 mm 74 W/m2
15:39 7.2 °C 4.1 °C 1012.8 hPa NNE 8.9 km/h 19.3 km/h 78% 0 mm 98 W/m2
15:44 7 °C 4.1 °C 1012.4 hPa NNE 11.4 km/h 27.4 km/h 78.8% 0 mm 183 W/m2
15:49 6.7 °C 3.7 °C 1012.8 hPa NE 11.9 km/h 22.5 km/h 78.6% 0 mm 244 W/m2
15:54 6.8 °C 3.9 °C 1012.4 hPa NE 13.4 km/h 24.1 km/h 79% 0 mm 232 W/m2
15:59 6.8 °C 4 °C 1012.8 hPa NNE 9.3 km/h 19.3 km/h 79.4% 0 mm 169 W/m2
16:04 6.7 °C 3.8 °C 1012.4 hPa NNE 10.8 km/h 19.3 km/h 79% 0 mm 127 W/m2
16:14 6.6 °C 3.9 °C 1012.4 hPa NE 10 km/h 20.9 km/h 80.2% 0.25 mm 130 W/m2
16:19 6.4 °C 3.9 °C 1012.4 hPa NE 10.9 km/h 24.1 km/h 80.8% 0.25 mm 114 W/m2
16:24 6.2 °C 3.7 °C 1012.4 hPa ENE 10.9 km/h 22.5 km/h 81% 0.51 mm 114 W/m2
16:29 6.2 °C 3.8 °C 1012.4 hPa ENE 8.4 km/h 16.1 km/h 81.8% 0.51 mm 111 W/m2
16:33 6.3 °C 4.2 °C 1012.4 hPa ENE 9.3 km/h 20.9 km/h 83% 0.51 mm 165 W/m2
16:39 6.5 °C 4.5 °C 1012.4 hPa ENE 7.9 km/h 14.5 km/h 83.8% 0.51 mm 272 W/m2
16:44 6.6 °C 4.6 °C 1012.4 hPa ENE 7.7 km/h 16.1 km/h 84% 0.51 mm 294 W/m2
16:49 6.7 °C 4.8 °C 1012.1 hPa ENE 6.3 km/h 16.1 km/h 84.2% 0.51 mm 301 W/m2
16:54 6.8 °C 4.8 °C 1012.1 hPa East 12.9 km/h 20.9 km/h 84% 0.51 mm 441 W/m2
16:59 6.9 °C 4.9 °C 1012.1 hPa East 4.7 km/h 16.1 km/h 84% 0.51 mm 494 W/m2
17:09 7.4 °C 5.1 °C 1012.1 hPa East 8.2 km/h 17.7 km/h 82.2% 0.51 mm 534 W/m2
17:14 7.7 °C 5.3 °C 1012.4 hPa NE 4.8 km/h 17.7 km/h 82% 0.51 mm 501 W/m2
17:19 7.9 °C 5.3 °C 1012.4 hPa East 11.6 km/h 24.1 km/h 80.8% 0.51 mm 473 W/m2
17:24 7.8 °C 5.1 °C 1012.4 hPa East 14.5 km/h 24.1 km/h 80% 0.51 mm 193 W/m2
17:29 7.4 °C 4.5 °C 1012.4 hPa NE 8.9 km/h 22.5 km/h 79% 0.51 mm 410 W/m2
17:34 7.2 °C 4.3 °C 1012.4 hPa East 10 km/h 22.5 km/h 79% 0.25 mm 432 W/m2
17:39 7.4 °C 4.6 °C 1012.4 hPa ENE 14.2 km/h 24.1 km/h 79.6% 0.25 mm 223 W/m2
17:44 7.3 °C 4.3 °C 1012.8 hPa East 9.2 km/h 19.3 km/h 79% 0.25 mm 144 W/m2
17:49 7.1 °C 4.1 °C 1012.8 hPa ENE 9.8 km/h 17.7 km/h 78.6% 0.25 mm 343 W/m2
17:51 7.1 °C 4.2 °C 1012.4 hPa ENE 13 km/h 16.1 km/h 79% 0.25 mm 178 W/m2
17:59 7.1 °C 4.2 °C 1012.8 hPa East 4.7 km/h 16.1 km/h 79% 0.25 mm 176 W/m2
18:04 7 °C 4.1 °C 1012.8 hPa ENE 8 km/h 24.1 km/h 78.8% 0.25 mm 144 W/m2
18:09 6.7 °C 3.8 °C 1012.8 hPa NE 10.6 km/h 20.9 km/h 79% 0.25 mm 63 W/m2
18:14 6.5 °C 3.6 °C 1012.8 hPa East 13.7 km/h 25.7 km/h 79% 0.25 mm 62 W/m2
18:19 6.2 °C 3.4 °C 1012.8 hPa East 10.6 km/h 25.7 km/h 79.2% 0.25 mm 54 W/m2
18:24 6.1 °C 3.4 °C 1012.8 hPa ENE 8.4 km/h 20.9 km/h 80% 0 mm 33 W/m2
18:29 5.8 °C 3.2 °C 1012.8 hPa ENE 10.9 km/h 29 km/h 80% 0 mm 32 W/m2
18:34 5.7 °C 3.2 °C 1012.8 hPa ENE 7.1 km/h 24.1 km/h 81% 0 mm 26 W/m2
18:44 5.7 °C 3.2 °C 1013.1 hPa ENE 7.9 km/h 16.1 km/h 81% 0 mm 37 W/m2
18:49 5.7 °C 3.2 °C 1013.1 hPa ENE 3.1 km/h 24.1 km/h 81% 0 mm 35 W/m2
18:54 5.6 °C 3.1 °C 1013.1 hPa ENE 6.1 km/h 22.5 km/h 81% 0 mm 44 W/m2
18:59 5.6 °C 3.1 °C 1013.1 hPa ENE 7.9 km/h 17.7 km/h 81% 0 mm 42 W/m2
19:04 5.6 °C 3.1 °C 1013.1 hPa ENE 9.3 km/h 17.7 km/h 81% 0 mm 18 W/m2
19:09 5.4 °C 2.9 °C 1013.1 hPa NE 8.4 km/h 20.9 km/h 81% 0 mm 14 W/m2
19:14 5.3 °C 2.8 °C 1013.4 hPa ENE 7.2 km/h 20.9 km/h 81% 0 mm 12 W/m2
19:19 5.2 °C 2.7 °C 1013.4 hPa NE 12.6 km/h 19.3 km/h 81% 0 mm 11 W/m2
19:24 5.2 °C 2.7 °C 1013.4 hPa ENE 8.4 km/h 19.3 km/h 81% 0 mm 7 W/m2
19:29 5.2 °C 2.7 °C 1013.4 hPa ENE 3.7 km/h 17.7 km/h 81% 0 mm 5 W/m2
19:34 5.2 °C 2.7 °C 1013.4 hPa ENE 5.8 km/h 17.7 km/h 81% 0 mm 0 W/m2
19:39 5.2 °C 2.7 °C 1013.4 hPa NE 6.4 km/h 12.9 km/h 81.2% 0 mm 0 W/m2
19:54 4.9 °C 2.6 °C 1013.8 hPa NE 7.2 km/h 14.5 km/h 82% 0 mm 0 W/m2
19:59 4.9 °C 2.6 °C 1013.8 hPa NE 8.9 km/h 17.7 km/h 82% 0 mm 0 W/m2
20:04 4.8 °C 2.5 °C 1013.8 hPa NE 6.9 km/h 14.5 km/h 82% 0 mm 0 W/m2
20:09 4.8 °C 2.5 °C 1014.1 hPa NE 9.7 km/h 19.3 km/h 82% 0 mm 0 W/m2
20:14 4.7 °C 2.3 °C 1014.1 hPa NE 10.6 km/h 20.9 km/h 82% 0 mm 0 W/m2
20:19 4.5 °C 2.1 °C 1014.1 hPa NE 14 km/h 20.9 km/h 81.3% 0 mm 0 W/m2
20:24 4.4 °C 2 °C 1014.1 hPa ENE 9 km/h 17.7 km/h 81.6% 0 mm 0 W/m2
20:29 4.4 °C 2.1 °C 1014.1 hPa NE 8.7 km/h 22.5 km/h 81.8% 0 mm 0 W/m2
20:34 4.3 °C 1.9 °C 1014.1 hPa ENE 9.5 km/h 24.1 km/h 81.2% 0 mm 0 W/m2
20:39 4.3 °C 2 °C 1014.4 hPa NE 6.4 km/h 12.9 km/h 82% 0 mm 0 W/m2
20:44 4.3 °C 2 °C 1014.4 hPa ENE 6.9 km/h 12.9 km/h 82% 0 mm 0 W/m2
20:49 4.3 °C 1.9 °C 1014.4 hPa ENE 4.2 km/h 8 km/h 82% 0 mm 0 W/m2
20:54 4.2 °C 1.9 °C 1014.4 hPa NE 6.4 km/h 14.5 km/h 82% 0 mm 0 W/m2
20:59 4.2 °C 1.8 °C 1014.4 hPa NE 9.3 km/h 20.9 km/h 82% 0 mm 0 W/m2
21:04 4.1 °C 1.8 °C 1014.8 hPa ENE 9.3 km/h 20.9 km/h 82% 0 mm 0 W/m2
21:09 4.1 °C 1.8 °C 1014.8 hPa NE 7.1 km/h 17.7 km/h 82% 0 mm 0 W/m2
21:14 4.1 °C 1.8 °C 1014.8 hPa ENE 6.3 km/h 17.7 km/h 82% 0 mm 0 W/m2
21:19 3.9 °C 1.6 °C 1014.8 hPa NE 6 km/h 16.1 km/h 82% 0 mm 0 W/m2
21:24 3.9 °C 1.6 °C 1014.8 hPa NE 5.3 km/h 11.3 km/h 82% 0 mm 0 W/m2
21:29 3.8 °C 1.4 °C 1014.8 hPa NE 13.8 km/h 22.5 km/h 82% 0 mm 0 W/m2
21:34 3.7 °C 1.3 °C 1014.8 hPa NE 9.2 km/h 24.1 km/h 82% 0 mm 0 W/m2
21:39 3.6 °C 1.3 °C 1014.8 hPa NE 12.6 km/h 20.9 km/h 82% 0 mm 0 W/m2
21:44 3.5 °C 1.3 °C 1014.8 hPa NE 5.8 km/h 19.3 km/h 82.4% 0 mm 0 W/m2
21:49 3.4 °C 1.2 °C 1014.8 hPa NE 6.6 km/h 16.1 km/h 82.6% 0 mm 0 W/m2
21:54 3.4 °C 1.3 °C 1014.8 hPa NE 6.4 km/h 12.9 km/h 83% 0 mm 0 W/m2
21:59 3.4 °C 1.3 °C 1014.8 hPa NE 4.5 km/h 14.5 km/h 83% 0 mm 0 W/m2
22:04 3.4 °C 1.3 °C 1015.1 hPa NE 6.8 km/h 16.1 km/h 83% 0 mm 0 W/m2
22:09 3.4 °C 1.3 °C 1015.1 hPa NE 5.1 km/h 12.9 km/h 83% 0 mm 0 W/m2
22:14 3.4 °C 1.3 °C 1015.1 hPa NE 5.6 km/h 12.9 km/h 83% 0 mm 0 W/m2
22:19 3.4 °C 1.3 °C 1015.1 hPa NE 5.3 km/h 12.9 km/h 83% 0 mm 0 W/m2
22:24 3.4 °C 1.3 °C 1015.1 hPa NE 4.5 km/h 11.3 km/h 83% 0 mm 0 W/m2
22:29 3.4 °C 1.3 °C 1015.1 hPa NE 3.9 km/h 12.9 km/h 83% 0 mm 0 W/m2
22:34 3.4 °C 1.3 °C 1015.1 hPa ENE 1.3 km/h 8 km/h 83% 0 mm 0 W/m2
22:39 3.4 °C 1.3 °C 1015.1 hPa ENE 2.4 km/h 4.8 km/h 83% 0 mm 0 W/m2
22:44 3.4 °C 1.3 °C 1015.1 hPa ENE 3.4 km/h 17.7 km/h 83% 0 mm 0 W/m2
22:49 3.4 °C 1.3 °C 1015.1 hPa ENE 4 km/h 11.3 km/h 83% 0 mm 0 W/m2
22:54 3.3 °C 1.2 °C 1015.1 hPa ENE 1.6 km/h 4.8 km/h 83.3% 0 mm 0 W/m2
22:59 3.3 °C 1.3 °C 1015.1 hPa ENE 4.5 km/h 11.3 km/h 83.6% 0 mm 0 W/m2
23:04 3.3 °C 1.3 °C 1015.1 hPa NNE 6 km/h 14.5 km/h 84% 0 mm 0 W/m2
23:09 3.3 °C 1.3 °C 1015.1 hPa NE 6.3 km/h 14.5 km/h 84% 0 mm 0 W/m2
23:14 3.2 °C 1.2 °C 1015.1 hPa NNE 9.3 km/h 17.7 km/h 84% 0 mm 0 W/m2
23:19 3.2 °C 1.2 °C 1015.1 hPa North 7.7 km/h 14.5 km/h 84% 0 mm 0 W/m2
23:24 3.2 °C 1.2 °C 1015.1 hPa NE 3.9 km/h 11.3 km/h 84% 0 mm 0 W/m2
23:29 3.2 °C 1.2 °C 1015.1 hPa NE 1.6 km/h 4.8 km/h 84% 0 mm 0 W/m2
23:34 3.2 °C 1.2 °C 1015.1 hPa NE 1 km/h 4.8 km/h 84% 0 mm 0 W/m2
23:39 3.2 °C 1.2 °C 1015.1 hPa NE 2.4 km/h 4.8 km/h 84% 0 mm 0 W/m2
23:44 3.1 °C 1.2 °C 1015.1 hPa North 5.1 km/h 9.7 km/h 84% 0 mm 0 W/m2
23:49 3.1 °C 1.3 °C 1015.1 hPa NW 4.5 km/h 11.3 km/h 85% 0 mm 0 W/m2
23:54 2.9 °C 1.2 °C 1015.1 hPa WNW 5.6 km/h 11.3 km/h 85.3% 0 mm 0 W/m2
23:59 2.8 °C 1.3 °C 1015.1 hPa WNW 5.1 km/h 8 km/h 86% 0 mm 0 W/m2
Bath Spa Weather
Compliments of Weather Underground - 2 mb